Flight Track Log - Related Links

Times and Time Zones

All times are in EDT time to prevent confusion due to time zone crossing. See the N1910A flight status page for this flight to view local times or setup timezone preferences in your user account.

Time Position Orientation Groundspeed Altitude Reporting Facility
EDT Latitude Longitude Course Direction KTS MPH feet Rate Location/Type
Sat 10:16:39 PM 39.5256 -107.7389 266° West 68 78 5,400  Level Denver Center
Sat 10:17:41 PM 39.5208 -107.8164 266° West 186 214 7,700 2,488 Climbing Denver Center
Sat 10:18:42 PM 39.4972 -107.9064 251° West 250 288 10,500 2,754 Climbing Denver Center
Sat 10:19:43 PM 39.4589 -108.0067 244° Southwest 305 351 13,300 2,732 Climbing Denver Center
Sat 10:20:45 PM 39.4036 -108.0897 229° Southwest 305 351 16,100 2,341 Climbing Denver Center
Sat 10:21:46 PM 39.3378 -108.1825 227° Southwest 325 374 18,100 1,918 Climbing Denver Center
Sat 10:22:47 PM 39.2436 -108.2058 191° South 348 400 20,000 1,902 Climbing Denver Center
Sat 10:23:49 PM 39.1531 -108.1472 153° Southeast 364 419 22,000 2,000 Climbing Denver Center
Sat 10:24:50 PM 39.0567 -108.0714 149° Southeast 372 428 24,100 1,967 Climbing Denver Center
Sat 10:25:51 PM 38.9581 -108.0119 155° Southeast 388 447 26,000 1,854 Climbing Denver Center
Sat 10:26:53 PM 38.8586 -107.9519 155° Southeast 392 451 27,900 1,854 Climbing Denver Center
Sat 10:27:54 PM 38.7589 -107.8936 155° Southeast 393 452 29,800 1,770 Climbing Denver Center
Sat 10:28:55 PM 38.6744 -107.8422 155° Southeast 392 451 31,500 1,561 Climbing Denver Center
Sat 10:29:57 PM 38.5531 -107.7694 155° Southeast 395 455 33,000 732 Climbing Denver Center
Sat 10:30:58 PM 38.4431 -107.7069 156° South 434 499 33,000  Level Denver Center
Sat 10:31:59 PM 38.3367 -107.6397 154° Southeast 443 510 33,000  Level Denver Center
Sat 10:33:01 PM 38.2131 -107.5678 155° Southeast 439 505 33,000  Level Denver Center
Sat 10:34:02 PM 38.1164 -107.5114 155° Southeast 431 496 33,000  Level Denver Center
Sat 10:35:03 PM 38.0119 -107.4506 155° Southeast 417 480 33,000  Level Denver Center
Sat 10:36:05 PM 37.8942 -107.3836 156° South 417 480 33,000  Level Denver Center
Sat 10:37:06 PM 37.7939 -107.3250 155° Southeast 416 479 33,000  Level Denver Center
Sat 10:38:07 PM 37.6786 -107.2567 155° Southeast 412 474 33,000  Level Denver Center
Sat 10:39:09 PM 37.5775 -107.2000 156° South 412 474 33,000 -146 Level Denver Center
Sat 10:40:10 PM 37.4758 -107.1431 156° South 413 475 32,700 -984 Descending Denver Center
Sat 10:41:11 PM 37.3533 -107.0717 155° Southeast 430 495 31,000 -1,574 Descending Denver Center
Sat 10:42:12 PM 37.2472 -107.0125 156° South 434 499 29,500 -1,415 Descending Denver Center
Sat 10:43:14 PM 37.1425 -106.9522 155° Southeast 435 501 28,100 -1,220 Descending Denver Center
Sat 10:44:15 PM 37.0217 -106.8850 156° South 429 494 27,000 -541 Descending Denver Center
Sat 10:45:16 PM 36.9217 -106.8269 155° Southeast 420 483 27,000  Level Denver Center
Sat 10:46:17 PM 36.8081 -106.7642 156° South 409 471 27,000  Level Denver Center
Sat 10:47:18 PM 36.7092 -106.7092 156° South 408 470 27,000  Level Denver Center
Sat 10:48:19 PM 36.6111 -106.6531 155° Southeast 407 468 27,000 -98 Level Denver Center
Sat 10:49:21 PM 36.4967 -106.5906 156° South 406 467 26,800 -829 Descending Denver Center
Sat 10:50:22 PM 36.3953 -106.5333 156° South 410 472 25,300 -1,426 Descending Denver Center
Sat 10:51:23 PM 36.3006 -106.4814 156° South 414 476 23,900 -1,426 Descending Denver Center
Sat 10:52:24 PM 36.1994 -106.4256 156° South 404 465 22,400 -1,521 Descending Denver Center
Sat 10:53:45 PM 36.0569 -106.3464 156° South 396 456 20,300 -1,859 Descending Albuquerque Center
Sat 10:54:46 PM 35.9600 -106.2933 156° South 386 444 18,000 -2,262 Descending Albuquerque Center
Sat 10:55:47 PM 35.8681 -106.2428 156° South 375 432 15,700 -2,361 Descending Albuquerque Center
Sat 10:56:48 PM 35.7836 -106.1967 156° South 345 397 13,200 -2,164 Descending Albuquerque Center
Sat 10:57:49 PM 35.7078 -106.1550 156° South 312 359 11,300 -1,918 Descending Albuquerque Center
Sat 10:58:50 PM 35.6258 -106.1478 176° South 274 315 9,300 -1,672 Descending Albuquerque Center
Sat 10:59:51 PM 35.5761 -106.1725 202° Southwest 212 244 7,900 -1,180 Descending Albuquerque Center
Sat 11:00:52 PM 35.5683 -106.1336 104° East 139 160 6,900 -689 Descending Albuquerque Center
Sat 11:01:53 PM 35.5956 -106.1069 39° Northeast 124 143 6,500 -393 Descending Albuquerque Center

Login

Don't have an account? Register now (free) for customized features, flight alerts, and more!